Time;durP1;ratioP1;P1;durP2;ratioP2;P2;SDS_P1;SDS_P2;PMS_P1;PMS_P2;Temp;Humidity;BMP_temperature;BMP_pressure;BME280_temperature;BME280_humidity;BME280_pressure;Samples;Min_cycle;Max_cycle;Signal;HPM_P1;HPM_P2
2022/06/06 00:02:08;;;;;;;73.22;33.03;;;;;;;13.95;100.00;101381.34;4996644;28;20030;-90
2022/06/06 00:04:35;;;;;;;75.45;33.80;;;;;;;13.66;100.00;101325.38;4996683;28;20026;-89
2022/06/06 00:07:00;;;;;;;69.97;32.42;;;;;;;13.83;100.00;101353.63;4996851;28;20026;-90
2022/06/06 00:09:27;;;;;;;66.45;31.95;;;;;;;13.69;100.00;101336.41;4996339;28;20042;-91
2022/06/06 00:11:56;;;;;;;69.57;32.63;;;;;;;13.91;100.00;101376.47;4996484;28;20112;-92
2022/06/06 00:14:21;;;;;;;73.13;32.00;;;;;;;13.93;100.00;101372.00;4996225;28;20029;-91
2022/06/06 00:16:47;;;;;;;64.53;31.08;;;;;;;13.95;100.00;101377.91;4996504;28;20386;-91
2022/06/06 00:19:13;;;;;;;66.55;31.58;;;;;;;13.72;100.00;101341.38;4996488;28;20034;-87
2022/06/06 00:21:40;;;;;;;65.38;32.55;;;;;;;13.59;100.00;101316.38;4996150;28;20036;-88
2022/06/06 00:24:07;;;;;;;65.60;31.13;;;;;;;13.96;100.00;101384.75;4996335;28;20034;-85
2022/06/06 00:26:33;;;;;;;64.93;31.65;;;;;;;13.94;100.00;101377.09;4996034;28;20097;-90
2022/06/06 00:28:59;;;;;;;64.68;30.25;;;;;;;13.73;100.00;101340.44;4996063;28;20034;-91
2022/06/06 00:36:54;;;;;;;63.25;30.25;;;;;;;13.91;100.00;101359.13;4996223;28;20041;-92
2022/06/06 00:39:20;;;;;;;64.68;29.60;;;;;;;13.88;100.00;101361.13;4978152;28;20034;-91
2022/06/06 00:41:51;;;;;;;67.10;29.70;;;;;;;13.77;100.00;101348.88;4995777;28;20022;-92
2022/06/06 00:44:20;;;;;;;62.92;29.50;;;;;;;13.82;100.00;101354.56;4995755;28;20037;-91
2022/06/06 00:47:03;;;;;;;61.45;30.63;;;;;;;13.80;100.00;101353.84;4995794;28;20018;-92
2022/06/06 00:49:36;;;;;;;67.38;31.70;;;;;;;13.80;100.00;101356.44;4995692;28;20026;-91
2022/06/06 00:52:07;;;;;;;78.10;32.90;;;;;;;13.78;100.00;101355.72;4995809;28;20030;-91
2022/06/06 00:54:33;;;;;;;66.63;31.70;;;;;;;13.74;100.00;101355.06;4995805;28;20410;-91
2022/06/06 00:57:02;;;;;;;72.47;33.55;;;;;;;13.68;100.00;101346.91;4995406;28;20022;-93
2022/06/06 00:59:30;;;;;;;70.32;33.03;;;;;;;13.36;100.00;101290.19;4995550;28;20057;-92
2022/06/06 01:01:57;;;;;;;76.82;32.65;;;;;;;13.73;100.00;101352.59;4995494;28;20403;-92
2022/06/06 01:04:26;;;;;;;67.93;31.75;;;;;;;13.72;100.00;101348.34;4995594;28;20145;-91
2022/06/06 01:06:52;;;;;;;75.53;34.85;;;;;;;13.37;100.00;101304.84;4978101;28;20530;-92
2022/06/06 01:09:20;;;;;;;75.68;35.47;;;;;;;13.70;100.00;101358.00;4995517;28;20390;-90
2022/06/06 01:11:50;;;;;;;82.63;35.85;;;;;;;13.69;100.00;101358.94;4995438;28;20105;-91
2022/06/06 01:14:21;;;;;;;71.28;33.72;;;;;;;13.61;100.00;101337.84;4995195;28;20035;-92
2022/06/06 01:16:59;;;;;;;72.85;34.10;;;;;;;13.42;100.00;101320.91;4995242;28;20129;-91
2022/06/06 01:20:06;;;;;;;80.85;34.95;;;;;;;13.67;100.00;101360.81;4995084;28;20038;-92
2022/06/06 01:22:37;;;;;;;79.10;36.53;;;;;;;13.70;100.00;101360.59;4954209;28;20054;-87
2022/06/06 01:25:16;;;;;;;;;;;;;;;13.73;100.00;101352.59;4954867;28;20076;-92
2022/06/06 01:27:53;;;;;;;82.32;36.70;;;;;;;13.75;100.00;101348.94;4954413;29;19922;-89
2022/06/06 01:30:23;;;;;;;95.65;40.58;;;;;;;13.64;100.00;101337.63;4954101;28;20595;-91
2022/06/06 01:32:53;;;;;;;93.50;40.50;;;;;;;13.75;100.00;101348.13;4956032;29;20042;-91
2022/06/06 01:35:29;;;;;;;97.18;40.13;;;;;;;13.78;100.00;101353.13;4955872;29;20422;-93
2022/06/06 01:37:55;;;;;;;95.95;41.40;;;;;;;13.69;100.00;101338.16;4955778;29;20043;-91
2022/06/06 01:40:21;;;;;;;95.60;41.30;;;;;;;13.61;100.00;101332.66;4957096;29;20055;-94
2022/06/06 01:43:05;;;;;;;107.53;43.17;;;;;;;13.20;100.00;101271.44;4954822;28;20392;-93
2022/06/06 01:45:38;;;;;;;97.00;42.00;;;;;;;13.65;100.00;101334.94;4956033;28;20075;-94
2022/06/06 01:48:10;;;;;;;99.38;42.80;;;;;;;13.48;100.00;101304.13;4957436;29;20063;-91
2022/06/06 01:50:37;;;;;;;109.30;45.47;;;;;;;13.79;100.00;101354.78;4962671;29;20059;-94
2022/06/06 01:53:07;;;;;;;111.13;46.50;;;;;;;13.82;100.00;101349.38;4964847;29;20558;-95
2022/06/06 01:55:34;;;;;;;110.10;46.88;;;;;;;13.81;100.00;101352.91;4968142;29;20027;-94
2022/06/06 01:58:05;;;;;;;119.15;49.08;;;;;;;13.78;100.00;101350.53;4965928;29;20031;-94
2022/06/06 02:00:33;;;;;;;117.65;50.47;;;;;;;13.82;100.00;101351.97;5004839;28;20453;-93
2022/06/06 02:02:59;;;;;;;121.35;49.30;;;;;;;13.58;100.00;101305.16;5002344;28;20026;-94
2022/06/06 02:05:24;;;;;;;123.88;51.20;;;;;;;13.55;100.00;101296.75;5001476;28;20061;-94
2022/06/06 02:07:50;;;;;;;123.70;52.40;;;;;;;13.84;100.00;101344.91;4997575;28;20414;-94
2022/06/06 02:10:17;;;;;;;126.32;54.38;;;;;;;13.62;100.00;101301.41;5001026;28;20026;-94
2022/06/06 02:12:43;;;;;;;126.97;52.97;;;;;;;13.70;100.00;101322.50;4999653;28;20057;-93
2022/06/06 02:15:11;;;;;;;115.25;50.00;;;;;;;13.56;100.00;101288.03;4978627;28;20026;-90
2022/06/06 02:17:37;;;;;;;121.57;50.65;;;;;;;13.82;100.00;101320.81;4995445;28;20034;-95
2022/06/06 02:20:04;;;;;;;113.93;51.60;;;;;;;13.56;100.00;101275.03;4994688;28;20026;-94
2022/06/06 02:22:31;;;;;;;116.93;50.30;;;;;;;13.68;100.00;101288.03;4995420;28;20042;-93
2022/06/06 02:24:56;;;;;;;112.47;50.35;;;;;;;13.85;100.00;101312.81;4995212;28;20494;-93
2022/06/06 02:27:22;;;;;;;119.13;51.53;;;;;;;13.32;100.00;101230.84;4995988;28;20540;-93
2022/06/06 02:29:47;;;;;;;123.32;53.90;;;;;;;13.77;100.00;101302.97;4996324;28;20027;-94
2022/06/06 02:32:13;;;;;;;118.38;54.00;;;;;;;13.71;100.00;101293.00;4995295;28;20029;-93
2022/06/06 02:34:38;;;;;;;119.38;51.58;;;;;;;13.89;100.00;101321.22;4994893;28;20364;-87
2022/06/06 02:37:05;;;;;;;119.72;53.78;;;;;;;13.73;100.00;101287.69;4995308;28;20177;-93
2022/06/06 02:39:31;;;;;;;123.82;54.03;;;;;;;13.62;100.00;101275.47;4996563;28;20026;-92
2022/06/06 02:41:56;;;;;;;120.50;55.20;;;;;;;13.61;100.00;101275.56;4994906;28;20026;-94
2022/06/06 02:44:23;;;;;;;116.97;54.70;;;;;;;13.88;100.00;101317.81;4994592;28;20105;-93
2022/06/06 02:46:48;;;;;;;111.15;51.90;;;;;;;13.52;100.00;101264.06;4995021;28;20023;-93
2022/06/06 02:49:14;;;;;;;114.80;52.15;;;;;;;13.87;100.00;101318.75;4993804;28;20033;-93
2022/06/06 02:51:39;;;;;;;116.63;51.88;;;;;;;13.72;100.00;101307.63;4977631;28;20040;-92
2022/06/06 02:54:05;;;;;;;122.55;52.30;;;;;;;13.61;100.00;101288.56;4995494;28;20057;-93
2022/06/06 02:56:30;;;;;;;113.53;52.47;;;;;;;13.83;100.00;101319.03;4995938;28;20076;-93
2022/06/06 02:59:00;;;;;;;125.43;52.45;;;;;;;13.74;100.00;101299.75;4996299;28;20034;-94
2022/06/06 03:01:26;;;;;;;127.65;55.00;;;;;;;13.82;100.00;101315.63;4994363;28;20050;-94
2022/06/06 03:03:52;;;;;;;112.95;52.30;;;;;;;13.09;100.00;101199.50;4996130;28;20026;-92
2022/06/06 03:06:45;;;;;;;129.68;55.30;;;;;;;13.82;100.00;101312.19;4977430;28;20165;-93
2022/06/06 03:09:41;;;;;;;121.75;52.85;;;;;;;13.84;100.00;101318.94;4994056;28;20034;-94
2022/06/06 03:12:29;;;;;;;121.80;54.45;;;;;;;13.81;100.00;101308.78;4993917;28;20445;-90
2022/06/06 03:15:09;;;;;;;125.03;53.63;;;;;;;13.81;100.00;101311.38;4993749;28;20128;-93
2022/06/06 03:20:57;;;;;;;122.93;54.55;;;;;;;13.45;100.00;101268.81;4994175;28;20038;-89
2022/06/06 03:23:41;;;;;;;122.65;54.00;;;;;;;13.75;100.00;101327.34;4993418;28;20053;-92
2022/06/06 03:26:11;;;;;;;118.50;52.10;;;;;;;13.75;100.00;101323.00;4993699;28;20030;-92
2022/06/06 03:29:13;;;;;;;117.60;50.40;;;;;;;13.50;100.00;101291.88;4995086;28;20061;-88
2022/06/06 03:31:50;;;;;;;123.47;55.05;;;;;;;13.76;100.00;101327.28;4996125;28;20030;-93
2022/06/06 03:34:38;;;;;;;115.57;49.67;;;;;;;13.79;100.00;101336.59;4997002;28;20445;-95
2022/06/06 03:37:21;;;;;;;105.30;49.63;;;;;;;13.61;100.00;101310.13;4996034;28;20043;-92
2022/06/06 03:40:24;;;;;;;109.53;49.67;;;;;;;13.03;100.00;101218.06;4993449;28;20026;-94
2022/06/06 03:43:15;;;;;;;114.07;49.88;;;;;;;13.44;100.00;101294.88;4952618;29;20075;-92
2022/06/06 03:46:02;;;;;;;110.60;49.53;;;;;;;13.66;100.00;101335.75;4876679;29;20041;-93
2022/06/06 03:48:48;;;;;;;104.20;47.00;;;;;;;13.64;100.00;101335.03;4876726;29;20041;-95
2022/06/06 03:51:36;;;;;;;101.72;46.05;;;;;;;13.32;100.00;101293.94;4877171;29;20049;-93
2022/06/06 03:54:16;;;;;;;102.13;46.40;;;;;;;13.60;100.00;101329.25;4876881;29;20080;-92
2022/06/06 03:57:02;;;;;;;105.53;44.78;;;;;;;13.39;100.00;101294.38;4878492;29;20048;-93
2022/06/06 03:59:29;;;;;;;94.10;45.88;;;;;;;13.55;100.00;101339.09;4879164;29;20045;-93
2022/06/06 04:01:57;;;;;;;93.63;45.70;;;;;;;13.55;100.00;101343.44;4876971;29;20118;-91
2022/06/06 04:04:23;;;;;;;94.53;43.47;;;;;;;13.40;100.00;101321.97;4876770;29;20045;-92
2022/06/06 04:06:55;;;;;;;90.07;43.95;;;;;;;13.53;100.00;101340.13;4878190;29;20093;-91
2022/06/06 04:09:21;;;;;;;84.97;41.75;;;;;;;13.55;100.00;101341.69;4880715;29;20398;-91
2022/06/06 04:12:18;;;;;;;86.43;41.47;;;;;;;13.64;100.00;101348.03;4881809;29;20179;-91
2022/06/06 04:14:52;;;;;;;76.95;38.67;;;;;;;13.57;100.00;101347.63;4844601;29;20038;-93
2022/06/06 04:17:45;;;;;;;76.05;36.92;;;;;;;13.53;100.00;101351.34;4843715;29;20419;-92
2022/06/06 04:20:28;;;;;;;82.60;37.60;;;;;;;13.54;100.00;101350.41;4858172;29;20494;-92
2022/06/06 04:22:59;;;;;;;78.28;38.78;;;;;;;13.65;100.00;101357.47;4913116;29;20054;-92
2022/06/06 04:25:36;;;;;;;64.47;34.78;;;;;;;13.64;100.00;101355.81;4956980;29;20043;-91
2022/06/06 04:28:19;;;;;;;69.47;35.90;;;;;;;13.64;100.00;101369.59;4955875;29;20035;-92
2022/06/06 04:30:58;;;;;;;63.88;32.28;;;;;;;13.39;100.00;101339.28;4956248;29;20036;-89
2022/06/06 04:33:27;;;;;;;61.35;32.70;;;;;;;13.55;100.00;101367.63;4955222;29;20049;-90
2022/06/06 04:36:11;;;;;;;58.92;30.50;;;;;;;13.35;100.00;101342.19;4939372;29;20074;-92
2022/06/06 04:39:00;;;;;;;57.00;30.02;;;;;;;13.53;100.00;101368.66;4955416;29;20042;-93
2022/06/06 04:41:45;;;;;;;58.22;29.70;;;;;;;13.54;100.00;101362.53;4949942;29;20082;-89
2022/06/06 04:44:16;;;;;;;56.42;29.52;;;;;;;13.53;100.00;101366.06;4955267;29;20035;-86
2022/06/06 04:46:47;;;;;;;50.30;29.10;;;;;;;13.53;99.98;101364.31;4956163;29;20027;-91
2022/06/06 04:49:13;;;;;;;57.75;30.38;;;;;;;13.62;100.00;101371.47;4955138;29;20039;-94
2022/06/06 04:51:42;;;;;;;53.78;28.85;;;;;;;13.71;99.88;101375.22;4976464;28;20080;-90
2022/06/06 04:54:10;;;;;;;51.33;30.05;;;;;;;13.74;97.32;101372.41;4995683;28;20064;-90
2022/06/06 04:56:37;;;;;;;57.13;31.10;;;;;;;13.76;97.26;101378.31;4997217;28;20094;-91
2022/06/06 04:59:03;;;;;;;51.42;29.23;;;;;;;13.49;96.68;101309.22;4995965;28;20073;-90
2022/06/06 05:01:29;;;;;;;48.08;29.52;;;;;;;14.38;92.59;101360.19;4996784;28;20030;-93
2022/06/06 05:03:54;;;;;;;49.28;28.15;;;;;;;15.41;88.57;101377.84;4995852;28;20023;-93
2022/06/06 05:06:42;;;;;;;47.30;28.33;;;;;;;16.28;82.90;101354.75;4976918;28;20122;-92
2022/06/06 05:09:16;;;;;;;40.78;26.23;;;;;;;17.16;78.89;101368.50;4996343;28;20041;-93
2022/06/06 05:12:02;;;;;;;40.45;26.23;;;;;;;17.75;75.28;101370.56;4996172;28;20027;-91
2022/06/06 05:14:40;;;;;;;38.92;24.63;;;;;;;17.75;74.45;101373.16;4976861;28;20391;-92
2022/06/06 05:17:41;;;;;;;37.25;25.92;;;;;;;17.49;76.60;101375.31;4999131;28;20026;-88
2022/06/06 05:20:38;;;;;;;40.13;25.95;;;;;;;17.61;75.79;101370.03;4996877;28;20544;-89
2022/06/06 05:23:14;;;;;;;39.47;26.08;;;;;;;17.12;73.25;101338.41;4997039;28;20042;-92
2022/06/06 05:26:00;;;;;;;36.45;25.90;;;;;;;16.48;76.31;101371.41;4995388;28;20109;-88
2022/06/06 05:28:44;;;;;;;41.63;27.60;;;;;;;16.25;77.80;101340.19;4995209;28;20025;-92
2022/06/06 05:31:28;;;;;;;38.30;26.70;;;;;;;17.37;73.87;101373.72;4977872;28;20066;-91
2022/06/06 05:34:05;;;;;;;37.80;26.42;;;;;;;18.31;69.46;101346.56;4995469;28;20414;-93
2022/06/06 05:36:49;;;;;;;31.67;24.48;;;;;;;17.80;70.45;101331.00;4993819;28;20437;-83
2022/06/06 05:39:31;;;;;;;33.53;25.05;;;;;;;17.27;71.37;101385.06;4995264;28;20027;-91
2022/06/06 05:42:30;;;;;;;36.45;25.50;;;;;;;16.88;75.11;101385.56;4994921;28;20096;-91
2022/06/06 05:45:10;;;;;;;35.28;25.08;;;;;;;16.53;75.90;101392.75;4994433;28;20509;-91
2022/06/06 05:48:11;;;;;;;35.17;25.38;;;;;;;16.21;77.35;101388.25;4994852;28;20031;-92
2022/06/06 05:50:43;;;;;;;34.92;24.90;;;;;;;16.04;78.88;101391.38;4954093;29;20099;-82
2022/06/06 05:53:40;;;;;;;34.08;25.02;;;;;;;15.99;77.41;101396.91;4954519;29;20519;-82
2022/06/06 05:56:45;;;;;;;31.70;23.58;;;;;;;15.77;79.30;101389.91;4953775;29;20039;-85
2022/06/06 05:59:30;;;;;;;30.45;22.48;;;;;;;16.17;76.49;101388.63;4954095;29;20023;-91
2022/06/06 06:02:17;;;;;;;30.60;23.25;;;;;;;16.27;76.83;101390.41;4955435;29;20111;-87
2022/06/06 06:05:04;;;;;;;29.90;21.92;;;;;;;16.57;75.45;101391.53;4955853;29;20031;-90
2022/06/06 06:08:00;;;;;;;25.45;19.77;;;;;;;17.09;73.12;101390.00;4953793;29;20063;-88
2022/06/06 06:10:46;;;;;;;27.17;18.50;;;;;;;18.12;69.00;101390.13;4953991;29;20047;-91
2022/06/06 06:13:27;;;;;;;20.00;15.20;;;;;;;18.60;66.31;101390.25;4953483;29;20031;-86
2022/06/06 06:15:56;;;;;;;24.58;15.93;;;;;;;19.13;63.40;101389.91;4952506;28;20480;-84
2022/06/06 06:18:31;;;;;;;21.98;14.75;;;;;;;19.64;60.72;101360.78;4954195;29;20051;-90
2022/06/06 06:21:02;;;;;;;19.98;13.57;;;;;;;20.26;60.17;101392.56;4953711;29;20051;-85
2022/06/06 06:23:32;;;;;;;21.77;13.60;;;;;;;20.42;58.28;101392.72;4952903;29;20130;-83
2022/06/06 06:26:01;;;;;;;20.67;13.50;;;;;;;21.15;57.01;101397.94;4952995;29;20059;-84
2022/06/06 06:28:28;;;;;;;18.27;13.27;;;;;;;22.05;55.04;101410.69;4987066;28;20109;-86
2022/06/06 06:31:27;;;;;;;19.80;13.50;;;;;;;21.99;55.34;101405.25;4976280;28;20494;-86
2022/06/06 06:34:17;;;;;;;20.27;13.65;;;;;;;20.75;57.42;101409.69;4993626;28;20105;-85
2022/06/06 06:36:46;;;;;;;18.55;13.68;;;;;;;20.83;57.49;101412.38;4993663;28;20040;-81
2022/06/06 06:39:14;;;;;;;16.55;12.70;;;;;;;21.29;55.20;101415.78;4994438;28;20540;-91
2022/06/06 06:42:16;;;;;;;16.77;12.85;;;;;;;21.86;54.91;101412.75;4994249;28;20023;-85
2022/06/06 06:45:01;;;;;;;17.50;11.13;;;;;;;22.52;53.81;101417.34;4976525;28;20053;-86
2022/06/06 06:47:30;;;;;;;13.50;10.25;;;;;;;21.63;53.39;101429.03;4993781;28;20026;-87
2022/06/06 06:50:20;;;;;;;15.07;9.77;;;;;;;22.41;51.95;101434.22;4993541;28;20105;-90
2022/06/06 06:53:01;;;;;;;15.55;9.77;;;;;;;22.88;51.60;101426.66;4993378;28;20471;-86
2022/06/06 06:55:44;;;;;;;15.00;9.07;;;;;;;23.17;50.54;101428.00;4993592;28;20045;-83
2022/06/06 06:58:40;;;;;;;11.90;7.63;;;;;;;22.87;49.17;101396.03;4993407;28;20022;-81
2022/06/06 07:01:15;;;;;;;11.18;8.50;;;;;;;21.74;50.03;101405.13;4993099;28;20030;-83
2022/06/06 07:10:17;;;;;;;12.23;7.40;;;;;;;22.12;51.24;101403.00;5012716;28;20076;-85
2022/06/06 07:12:45;;;;;;;10.45;5.97;;;;;;;20.79;51.34;101431.22;5012830;28;20033;-79
2022/06/06 07:15:21;;;;;;;11.48;6.28;;;;;;;20.60;53.68;101440.03;5013005;28;20022;-79
2022/06/06 07:17:53;;;;;;;9.43;5.78;;;;;;;19.76;54.79;101387.63;5013033;28;20026;-79
2022/06/06 07:20:20;;;;;;;7.50;5.07;;;;;;;20.86;53.74;101427.84;5012510;28;20022;-80
2022/06/06 07:23:04;;;;;;;8.38;5.70;;;;;;;21.18;50.53;101397.63;5012723;28;20104;-80
2022/06/06 07:25:38;;;;;;;9.43;5.38;;;;;;;20.83;52.49;101435.19;5012927;28;20041;-80
2022/06/06 07:28:18;;;;;;;9.05;5.13;;;;;;;21.33;52.53;101375.09;5012680;28;20026;-80
2022/06/06 07:30:54;;;;;;;10.77;5.35;;;;;;;22.39;50.48;101416.94;5012497;28;20030;-81
2022/06/06 07:33:57;;;;;;;4.85;4.07;;;;;;;21.96;50.10;101435.31;5012538;28;20022;-81
2022/06/06 07:36:44;;;;;;;6.65;4.10;;;;;;;20.91;52.25;101438.72;5012505;28;20462;-81
2022/06/06 07:39:13;;;;;;;6.25;4.50;;;;;;;20.15;53.12;101437.31;5012620;28;20060;-80
2022/06/06 07:42:02;;;;;;;6.70;4.47;;;;;;;18.80;55.12;101289.09;4996653;28;20119;-81
2022/06/06 07:44:53;;;;;;;6.47;4.72;;;;;;;18.57;55.24;101393.94;5016429;28;20060;-81
2022/06/06 07:48:00;;;;;;;8.18;5.00;;;;;;;17.54;58.68;101345.38;5016427;28;20022;-81
2022/06/06 07:50:51;;;;;;;6.85;4.80;;;;;;;17.18;59.29;101342.25;5016352;28;20109;-81
2022/06/06 07:53:31;;;;;;;8.73;5.28;;;;;;;17.49;59.97;101361.44;5016005;28;20080;-82
2022/06/06 07:56:14;;;;;;;7.43;5.43;;;;;;;17.93;60.19;101436.09;5016112;28;20037;-82
2022/06/06 07:58:45;;;;;;;5.25;4.75;;;;;;;18.17;61.49;101459.31;4998597;28;20018;-81
2022/06/06 08:01:22;;;;;;;6.53;5.10;;;;;;;18.38;60.12;101463.69;5016328;28;20076;-76
2022/06/06 08:04:17;;;;;;;7.15;4.80;;;;;;;18.51;60.01;101444.19;5016299;28;20018;-76
2022/06/06 08:06:56;;;;;;;9.60;5.13;;;;;;;18.56;59.71;101449.84;5016084;28;20049;-76
2022/06/06 08:09:33;;;;;;;8.05;5.13;;;;;;;18.51;59.48;101448.59;5016331;28;20142;-76
2022/06/06 08:12:23;;;;;;;6.07;5.20;;;;;;;18.37;60.36;101422.81;5016063;28;20037;-75
2022/06/06 08:14:51;;;;;;;6.32;4.63;;;;;;;18.28;60.51;101455.78;5015580;28;20033;-77
2022/06/06 08:17:25;;;;;;;7.70;4.80;;;;;;;17.91;61.03;101455.50;5016059;28;20381;-76
2022/06/06 08:20:02;;;;;;;5.60;4.53;;;;;;;17.58;62.59;101456.47;5015881;28;20041;-76
2022/06/06 08:22:29;;;;;;;9.93;5.30;;;;;;;17.27;62.45;101452.91;5015412;28;20060;-76
2022/06/06 08:24:58;;;;;;;6.80;4.60;;;;;;;17.02;63.67;101446.25;4997593;28;20481;-76
2022/06/06 08:27:27;;;;;;;7.72;5.82;;;;;;;17.17;64.41;101451.06;5015520;28;20030;-75
2022/06/06 08:29:52;;;;;;;8.95;5.80;;;;;;;17.25;63.65;101429.56;4997798;28;20485;-76
2022/06/06 08:32:18;;;;;;;6.72;5.13;;;;;;;17.52;63.34;101397.75;5015694;28;20057;-76
2022/06/06 08:34:44;;;;;;;7.78;5.40;;;;;;;18.19;62.07;101441.75;5015467;28;20034;-78
2022/06/06 08:37:34;;;;;;;6.22;5.00;;;;;;;18.37;61.68;101444.53;5015587;28;20030;-76
2022/06/06 08:40:19;;;;;;;6.93;4.88;;;;;;;18.43;62.42;101435.34;5015192;28;20072;-77
2022/06/06 08:43:01;;;;;;;6.75;5.25;;;;;;;18.73;60.27;101396.09;5015590;28;20045;-81
2022/06/06 08:45:51;;;;;;;6.32;4.50;;;;;;;19.26;60.25;101421.88;5015372;28;20032;-82
2022/06/06 08:48:22;;;;;;;7.30;4.70;;;;;;;19.23;59.22;101416.09;5015258;28;20101;-84
2022/06/06 08:50:53;;;;;;;5.28;4.13;;;;;;;19.48;61.95;101426.84;5015399;28;20030;-86
2022/06/06 08:53:27;;;;;;;4.85;3.75;;;;;;;19.61;59.15;101423.13;5014963;28;20030;-86
2022/06/06 08:56:22;;;;;;;5.30;3.15;;;;;;;19.71;58.35;101416.88;5015334;28;20030;-85
2022/06/06 08:59:21;;;;;;;4.40;3.13;;;;;;;19.70;60.12;101415.25;5015003;28;20041;-85
2022/06/06 09:02:06;;;;;;;5.32;2.65;;;;;;;19.40;56.10;101411.00;5015026;28;20038;-87
2022/06/06 09:05:03;;;;;;;4.70;2.70;;;;;;;19.24;59.46;101420.34;4997512;28;20030;-88
2022/06/06 09:08:04;;;;;;;5.88;3.78;;;;;;;19.24;61.52;101430.84;5014640;28;20040;-87
2022/06/06 09:10:44;;;;;;;8.07;3.27;;;;;;;19.24;61.55;101422.97;4973888;28;20518;-89
2022/06/06 09:13:41;;;;;;;5.22;3.35;;;;;;;19.44;61.59;101424.63;4973899;28;20122;-86
2022/06/06 09:16:34;;;;;;;5.30;2.85;;;;;;;19.24;59.79;101426.41;4973719;28;20043;-89
2022/06/06 09:19:24;;;;;;;7.97;3.28;;;;;;;19.05;60.92;101393.22;4973892;28;20566;-87
2022/06/06 09:22:13;;;;;;;5.93;3.40;;;;;;;19.41;59.71;101403.94;4973163;28;20442;-85
2022/06/06 09:25:13;;;;;;;6.32;3.38;;;;;;;19.25;60.48;101422.00;4973632;28;20534;-85
2022/06/06 09:27:44;;;;;;;8.32;4.53;;;;;;;19.03;60.07;101418.72;4973667;28;20054;-83
2022/06/06 09:30:18;;;;;;;8.40;4.78;;;;;;;19.10;61.14;101416.38;4973512;28;20042;-82
2022/06/06 09:33:17;;;;;;;8.82;5.13;;;;;;;19.46;62.48;101412.19;4973554;28;20042;-82
2022/06/06 09:36:04;;;;;;;8.32;4.65;;;;;;;19.24;59.46;101347.03;4973239;28;20042;-85
2022/06/06 09:38:45;;;;;;;9.25;4.68;;;;;;;18.92;55.63;101382.19;4973075;28;20038;-87
2022/06/06 09:41:33;;;;;;;7.40;4.10;;;;;;;18.51;55.41;101399.75;4973252;28;20419;-79
2022/06/06 09:44:13;;;;;;;6.85;3.92;;;;;;;18.36;58.11;101401.06;4973207;28;20410;-78
2022/06/06 09:47:06;;;;;;;7.82;3.60;;;;;;;18.34;59.24;101397.75;4978765;28;20081;-79
2022/06/06 09:49:48;;;;;;;5.57;3.00;;;;;;;18.33;58.54;101385.66;4996803;28;20038;-85
2022/06/06 09:52:32;;;;;;;7.22;3.22;;;;;;;18.28;57.60;101396.47;5014157;28;20419;-85
2022/06/06 10:01:08;;;;;;;4.30;2.55;;;;;;;18.52;57.83;101387.50;5014231;28;20584;-85
2022/06/06 10:04:03;;;;;;;5.35;2.95;;;;;;;18.77;57.19;101383.53;5013272;28;20105;-84
2022/06/06 10:06:44;;;;;;;4.20;2.40;;;;;;;19.26;55.41;101376.53;5014116;28;20018;-85
2022/06/06 10:09:55;;;;;;;4.03;2.20;;;;;;;19.33;54.16;101380.25;5013745;28;20058;-85
2022/06/06 10:12:48;;;;;;;7.07;2.35;;;;;;;19.42;53.96;101371.56;5013764;28;20291;-85
2022/06/06 10:15:47;;;;;;;6.65;1.88;;;;;;;19.62;54.12;101370.56;5013879;28;20026;-84
2022/06/06 10:18:33;;;;;;;4.30;1.88;;;;;;;19.67;54.80;101373.59;5013755;28;20029;-86
2022/06/06 10:21:24;;;;;;;4.40;1.92;;;;;;;20.18;56.26;101368.84;5013481;28;20052;-84
2022/06/06 10:24:20;;;;;;;5.00;1.90;;;;;;;20.28;53.02;101338.16;4972012;28;20121;-85
2022/06/06 10:27:10;;;;;;;3.25;1.75;;;;;;;20.55;54.63;101367.00;4972572;28;20033;-79
2022/06/06 10:32:58;;;;;;;4.40;1.60;;;;;;;20.26;52.56;101332.25;4972451;28;20046;-84
2022/06/06 10:36:00;;;;;;;2.08;1.30;;;;;;;20.17;51.08;101364.59;4972213;28;20047;-85
2022/06/06 10:38:51;;;;;;;4.45;1.30;;;;;;;20.01;50.56;101367.81;4972241;28;20467;-85
2022/06/06 10:41:46;;;;;;;5.53;1.45;;;;;;;20.19;52.83;101360.00;4972220;28;20053;-85
2022/06/06 10:44:17;;;;;;;3.03;1.60;;;;;;;20.52;52.27;101330.56;4972437;28;20043;-83
2022/06/06 10:47:11;;;;;;;2.58;1.27;;;;;;;21.10;50.22;101366.03;4956335;28;20506;-79
2022/06/06 10:49:53;;;;;;;3.67;1.27;;;;;;;20.94;48.63;101327.31;4895647;29;20497;-79
2022/06/06 10:52:46;;;;;;;3.65;1.30;;;;;;;20.80;49.89;101331.31;4895416;29;20041;-79
2022/06/06 10:55:47;;;;;;;5.53;1.40;;;;;;;20.60;47.60;101362.13;4895667;29;20040;-77
2022/06/06 10:58:35;;;;;;;3.03;1.30;;;;;;;19.85;49.41;101334.34;4894419;29;20072;-77
2022/06/06 11:01:19;;;;;;;4.82;1.20;;;;;;;19.64;50.53;101342.44;4879761;29;20049;-77
2022/06/06 11:04:22;;;;;;;3.70;1.13;;;;;;;20.11;51.59;101373.03;4895783;29;20055;-79
2022/06/06 11:07:09;;;;;;;3.65;1.42;;;;;;;20.23;51.57;101375.28;4895344;29;20043;-79
2022/06/06 11:09:55;;;;;;;3.33;1.20;;;;;;;19.92;51.99;101332.81;4895748;29;20139;-85
2022/06/06 11:12:57;;;;;;;3.78;1.50;;;;;;;20.13;52.91;101357.97;4895800;29;20045;-78
2022/06/06 11:15:34;;;;;;;5.30;1.50;;;;;;;19.72;53.44;101316.34;4897919;29;20040;-77
2022/06/06 11:18:15;;;;;;;3.95;1.40;;;;;;;19.72;53.40;101300.63;4901915;29;20032;-78
2022/06/06 11:20:54;;;;;;;3.33;1.55;;;;;;;20.16;54.20;101326.22;4901801;29;20055;-85
2022/06/06 11:23:37;;;;;;;4.45;1.50;;;;;;;20.49;53.73;101327.41;4901444;29;20052;-84
2022/06/06 11:26:27;;;;;;;3.42;1.35;;;;;;;20.75;52.75;101317.00;4917843;28;20038;-86
2022/06/06 11:28:58;;;;;;;3.63;1.20;;;;;;;21.23;50.03;101331.47;4977927;28;20042;-87
2022/06/06 11:31:36;;;;;;;;;;;;;;;21.48;48.37;101335.97;4978503;28;20030;-85
2022/06/06 11:34:15;;;;;;;3.13;1.33;;;;;;;21.10;47.91;101295.13;4977899;28;19918;-82
2022/06/06 11:37:05;;;;;;;3.72;1.15;;;;;;;21.19;48.06;101339.66;4978067;28;20177;-82
2022/06/06 11:40:21;;;;;;;3.10;1.23;;;;;;;21.45;48.17;101331.84;5018979;28;20397;-84
2022/06/06 11:43:12;;;;;;;3.58;1.10;;;;;;;21.68;46.79;101331.31;4977820;28;20387;-83
2022/06/06 11:45:52;;;;;;;2.85;1.00;;;;;;;21.74;48.12;101330.69;4977925;28;20505;-84
2022/06/06 11:48:58;;;;;;;4.07;1.30;;;;;;;21.48;48.30;101330.69;4977983;28;20138;-82
2022/06/06 11:51:50;;;;;;;5.50;1.10;;;;;;;20.33;49.21;101307.88;4961199;28;20051;-84
2022/06/06 11:54:45;;;;;;;3.47;1.40;;;;;;;19.70;50.95;101351.53;4977758;28;20031;-82
2022/06/06 11:57:30;;;;;;;4.57;1.70;;;;;;;19.15;53.54;101349.53;4977865;28;20031;-82
2022/06/06 12:00:13;;;;;;;5.30;1.70;;;;;;;18.84;56.11;101355.88;4977760;28;20026;-81
2022/06/06 12:02:47;;;;;;;2.78;1.40;;;;;;;18.51;55.68;101307.38;4977810;28;20034;-83
2022/06/06 12:05:12;;;;;;;2.55;1.20;;;;;;;19.02;55.80;101356.84;4977892;28;20062;-85
2022/06/06 12:07:49;;;;;;;2.55;1.45;;;;;;;19.02;55.65;101362.09;4977849;28;20035;-86
2022/06/06 12:10:35;;;;;;;3.95;1.40;;;;;;;18.57;54.71;101296.34;4960961;28;20169;-84
2022/06/06 12:13:09;;;;;;;4.10;1.63;;;;;;;18.62;54.99;101355.16;4977609;28;20034;-85
2022/06/06 12:15:56;;;;;;;3.38;1.55;;;;;;;18.62;55.64;101351.72;4977739;28;20043;-82
2022/06/06 12:18:36;;;;;;;3.42;1.20;;;;;;;18.52;55.93;101359.53;5003050;28;20040;-83
2022/06/06 12:21:33;;;;;;;5.32;1.50;;;;;;;18.49;56.08;101375.50;5018987;28;20034;-79
2022/06/06 12:24:43;;;;;;;4.80;1.55;;;;;;;18.14;59.27;101370.72;5018567;28;20120;-79
2022/06/06 12:27:26;;;;;;;4.72;1.77;;;;;;;17.85;62.11;101380.22;4975541;28;20086;-79
2022/06/06 12:30:10;;;;;;;5.65;1.88;;;;;;;18.00;63.42;101364.09;4974665;28;20035;-80
2022/06/06 12:32:58;;;;;;;3.17;1.40;;;;;;;18.65;62.83;101359.31;4974390;28;20088;-80